createdAt,value
2018-11-29T00:00:32.099Z,333.45
2018-11-29T00:03:02.563Z,342.13
2018-11-29T00:05:36.417Z,330.95
2018-11-29T00:08:06.078Z,338.02
2018-11-29T00:10:35.535Z,339.30
2018-11-29T00:13:06.280Z,340.95
2018-11-29T00:15:35.838Z,334.43
2018-11-29T00:18:05.396Z,338.77
2018-11-29T00:20:34.985Z,334.43
2018-11-29T00:23:05.555Z,339.07
2018-11-29T00:25:35.069Z,343.73
2018-11-29T00:28:04.648Z,341.80
2018-11-29T00:30:34.108Z,338.00
2018-11-29T00:33:04.243Z,341.90
2018-11-29T00:35:33.678Z,346.45
2018-11-29T00:38:03.187Z,337.57
2018-11-29T00:40:32.618Z,335.95
2018-11-29T00:43:02.021Z,335.40
2018-11-29T00:45:32.475Z,332.27
2018-11-29T00:48:02.058Z,334.40
2018-11-29T00:50:31.560Z,336.70
2018-11-29T00:53:00.994Z,329.30
2018-11-29T00:55:32.468Z,318.25
2018-11-29T00:58:03.092Z,314.77
2018-11-29T01:00:33.546Z,318.90
2018-11-29T01:03:03.028Z,316.30
2018-11-29T01:05:32.457Z,311.92
2018-11-29T01:08:02.011Z,321.00
2018-11-29T01:10:31.434Z,314.85
2018-11-29T01:13:01.076Z,312.17
2018-11-29T01:15:30.578Z,304.30
2018-11-29T01:18:00.023Z,311.50
2018-11-29T01:20:29.480Z,314.48
2018-11-29T01:22:58.941Z,307.87
2018-11-29T01:25:28.511Z,307.67
2018-11-29T01:27:58.032Z,304.75
2018-11-29T01:30:27.648Z,308.13
2018-11-29T01:32:57.180Z,313.52
2018-11-29T01:35:26.839Z,311.52
2018-11-29T01:37:56.359Z,305.83
2018-11-29T01:40:25.843Z,310.90
2018-11-29T01:42:57.141Z,303.53
2018-11-29T01:45:26.962Z,302.20
2018-11-29T01:47:56.502Z,296.70
2018-11-29T01:50:27.101Z,309.52
2018-11-29T01:52:56.556Z,298.55
2018-11-29T01:55:26.057Z,289.85
2018-11-29T01:57:56.522Z,303.00
2018-11-29T02:00:26.110Z,301.92
2018-11-29T02:02:56.636Z,293.58
2018-11-29T02:05:26.168Z,295.50
2018-11-29T02:07:55.688Z,297.77
2018-11-29T02:10:26.797Z,294.33
2018-11-29T02:12:56.451Z,300.48
2018-11-29T02:28:31.787Z,297.55
2018-11-29T02:31:01.313Z,297.67
2018-11-29T02:33:30.968Z,297.33
2018-11-29T02:36:01.381Z,296.12
2018-11-29T02:38:31.082Z,297.42
2018-11-29T02:41:00.499Z,301.88
2018-11-29T02:43:30.136Z,306.23
2018-11-29T02:46:00.627Z,302.43
2018-11-29T02:48:31.210Z,308.77
2018-11-29T02:51:00.723Z,308.80
2018-11-29T02:53:30.283Z,312.23
2018-11-29T02:55:59.760Z,311.10
2018-11-29T02:58:29.317Z,316.85
2018-11-29T03:00:58.759Z,316.20
2018-11-29T03:03:28.376Z,324.10
2018-11-29T03:05:57.947Z,322.25
2018-11-29T03:08:27.478Z,325.35
2018-11-29T03:10:58.073Z,318.90
2018-11-29T03:13:28.636Z,324.65
2018-11-29T03:15:58.059Z,331.65
2018-11-29T03:18:27.615Z,336.35
2018-11-29T03:20:57.167Z,334.23
2018-11-29T03:23:27.614Z,340.18
2018-11-29T03:25:57.157Z,336.37
2018-11-29T03:28:26.590Z,335.95
2018-11-29T03:30:56.080Z,333.03
2018-11-29T03:33:25.604Z,339.05
2018-11-29T03:35:55.104Z,332.20
2018-11-29T03:38:25.747Z,334.07
2018-11-29T03:40:55.275Z,331.25
2018-11-29T03:43:25.693Z,337.42
2018-11-29T03:45:56.215Z,337.48
2018-11-29T03:48:26.788Z,343.15
2018-11-29T03:50:56.277Z,334.57
2018-11-29T03:53:26.799Z,339.68
2018-11-29T03:55:57.072Z,344.02
2018-11-29T03:58:26.551Z,336.75
2018-11-29T04:00:56.075Z,339.67
2018-11-29T04:03:26.663Z,345.37
2018-11-29T04:05:56.291Z,343.80
2018-11-29T04:08:26.763Z,339.33
2018-11-29T04:10:56.276Z,336.85
2018-11-29T04:13:25.703Z,336.50
2018-11-29T04:15:56.138Z,338.40
2018-11-29T04:18:25.582Z,333.07
2018-11-29T04:20:56.147Z,335.52
2018-11-29T04:23:25.643Z,333.90
2018-11-29T04:25:55.224Z,331.68
2018-11-29T04:28:24.704Z,337.70
2018-11-29T04:30:54.178Z,341.93
2018-11-29T04:33:24.328Z,332.00
2018-11-29T04:35:56.542Z,326.40
2018-11-29T04:38:26.213Z,326.55
2018-11-29T04:40:55.743Z,333.60
2018-11-29T04:43:25.246Z,325.95
2018-11-29T04:46:05.968Z,328.93
2018-11-29T04:48:36.552Z,323.82
2018-11-29T04:51:06.082Z,324.62
2018-11-29T04:53:35.560Z,324.48
2018-11-29T04:56:05.023Z,328.05
2018-11-29T04:58:34.593Z,318.35
2018-11-29T05:01:05.139Z,322.20
2018-11-29T05:03:34.751Z,319.90
2018-11-29T05:06:04.201Z,321.55
2018-11-29T05:08:33.794Z,316.10
2018-11-29T05:11:03.974Z,319.95
2018-11-29T05:13:33.552Z,318.97
2018-11-29T05:16:05.092Z,316.55
2018-11-29T05:18:34.590Z,312.45
2018-11-29T05:21:05.156Z,313.82
2018-11-29T05:23:34.711Z,316.37
2018-11-29T05:26:04.344Z,318.77
2018-11-29T05:28:34.036Z,318.02
2018-11-29T05:31:03.602Z,322.23
2018-11-29T05:33:33.180Z,316.17
2018-11-29T05:36:02.724Z,311.60
2018-11-29T05:38:32.273Z,312.82
2018-11-29T05:41:01.800Z,306.60
2018-11-29T05:43:31.367Z,322.48
2018-11-29T05:46:00.898Z,311.75
2018-11-29T06:01:38.771Z,310.50
2018-11-29T06:04:13.907Z,301.92
2018-11-29T06:06:43.517Z,303.62
2018-11-29T06:09:13.011Z,304.70
2018-11-29T06:11:43.621Z,295.77
2018-11-29T06:14:13.094Z,301.02
2018-11-29T06:16:42.656Z,303.35
2018-11-29T06:19:14.464Z,302.77
2018-11-29T06:21:44.375Z,301.48
2018-11-29T06:24:14.885Z,297.63
2018-11-29T06:26:44.403Z,311.25
2018-11-29T06:29:13.933Z,300.93
2018-11-29T06:31:43.504Z,305.77
2018-11-29T06:34:13.080Z,300.73
2018-11-29T06:36:42.569Z,305.75
2018-11-29T06:39:12.139Z,304.10
2018-11-29T06:41:41.711Z,302.77
2018-11-29T06:44:11.244Z,306.40
2018-11-29T06:46:40.731Z,304.68
2018-11-29T06:49:11.194Z,306.35
2018-11-29T06:51:40.651Z,302.53
2018-11-29T06:54:10.086Z,303.35
2018-11-29T06:56:40.639Z,305.02
2018-11-29T06:59:10.116Z,305.95
2018-11-29T07:01:40.672Z,303.55
2018-11-29T07:17:13.461Z,303.15
2018-11-29T07:19:42.962Z,294.27
2018-11-29T07:22:12.507Z,294.30
2018-11-29T07:24:42.111Z,302.02
2018-11-29T07:27:11.558Z,298.95
2018-11-29T07:29:42.108Z,301.37
2018-11-29T07:32:13.602Z,296.20
2018-11-29T07:34:44.844Z,302.82
2018-11-29T07:37:17.387Z,296.12
2018-11-29T07:39:44.177Z,298.05
2018-11-29T07:42:13.669Z,302.27
2018-11-29T07:44:43.226Z,304.65
2018-11-29T07:47:12.733Z,305.07
2018-11-29T07:49:42.181Z,305.40
2018-11-29T07:52:11.582Z,305.15
2018-11-29T07:54:41.056Z,306.63
2018-11-29T07:57:10.445Z,304.70
2018-11-29T07:59:39.998Z,305.57
2018-11-29T08:02:09.534Z,303.20
2018-11-29T08:04:40.028Z,308.73
2018-11-29T08:07:09.588Z,303.85
2018-11-29T08:09:38.994Z,303.95
2018-11-29T08:12:08.657Z,305.95
2018-11-29T08:14:38.378Z,330.48
2018-11-29T08:17:07.803Z,312.45
2018-11-29T08:19:37.316Z,318.77
2018-11-29T08:22:06.856Z,328.23
2018-11-29T08:24:36.281Z,322.93
2018-11-29T08:27:05.987Z,325.85
2018-11-29T08:29:35.471Z,330.32
2018-11-29T08:45:08.609Z,332.27
2018-11-29T08:47:39.018Z,356.20
2018-11-29T08:50:11.638Z,356.63
2018-11-29T08:52:41.865Z,356.63
2018-11-29T08:55:15.579Z,361.75
2018-11-29T08:57:45.466Z,366.98
2018-11-29T09:00:17.866Z,370.70
2018-11-29T09:02:47.413Z,374.73
2018-11-29T09:05:16.932Z,378.90
2018-11-29T09:07:47.426Z,373.68
2018-11-29T09:10:18.222Z,376.65
2018-11-29T09:12:48.725Z,380.18
2018-11-29T09:15:18.319Z,371.40
2018-11-29T09:17:48.290Z,374.35
2018-11-29T09:20:19.935Z,377.10
2018-11-29T09:22:49.702Z,372.67
2018-11-29T09:25:21.118Z,374.37
2018-11-29T09:27:50.536Z,369.15
2018-11-29T09:30:22.170Z,370.00
2018-11-29T09:32:54.417Z,377.70
2018-11-29T09:35:24.076Z,376.95
2018-11-29T09:37:54.470Z,377.15
2018-11-29T09:40:23.991Z,375.07
2018-11-29T09:42:53.469Z,371.20
2018-11-29T09:45:23.692Z,372.48
2018-11-29T09:47:54.336Z,370.85
2018-11-29T09:50:24.501Z,377.13
2018-11-29T09:52:54.622Z,377.77
2018-11-29T09:55:24.079Z,377.95
2018-11-29T09:57:53.542Z,386.45
2018-11-29T10:00:28.380Z,388.20
2018-11-29T10:03:13.775Z,402.73
2018-11-29T10:05:44.706Z,390.30
2018-11-29T10:08:15.675Z,394.45
2018-11-29T10:10:46.057Z,402.93
2018-11-29T10:13:15.562Z,400.77
2018-11-29T10:15:45.990Z,409.22
2018-11-29T10:18:15.525Z,413.40
2018-11-29T10:20:45.035Z,415.45
2018-11-29T10:23:14.546Z,420.08
2018-11-29T10:25:45.090Z,428.00
2018-11-29T10:28:16.356Z,444.25
2018-11-29T10:30:53.313Z,444.02
2018-11-29T10:33:22.736Z,461.32
2018-11-29T10:35:58.689Z,478.10
2018-11-29T10:38:22.382Z,477.35
2018-11-29T10:40:51.868Z,475.48
2018-11-29T10:43:21.269Z,483.83
2018-11-29T10:45:50.743Z,484.77
2018-11-29T10:48:21.611Z,496.22
2018-11-29T10:50:51.096Z,493.48
2018-11-29T10:53:20.601Z,493.93
2018-11-29T10:55:50.079Z,492.90
2018-11-29T10:58:20.080Z,499.03
2018-11-29T11:00:54.827Z,507.23
2018-11-29T11:03:24.347Z,499.00
2018-11-29T11:05:54.793Z,504.48
2018-11-29T11:08:25.322Z,493.77
2018-11-29T11:10:55.792Z,497.90
2018-11-29T11:13:26.345Z,502.78
2018-11-29T11:15:56.853Z,495.82
2018-11-29T11:18:26.367Z,477.83
2018-11-29T11:20:56.008Z,491.10
2018-11-29T11:23:25.529Z,467.22
2018-11-29T11:25:56.069Z,469.25
2018-11-29T11:28:25.594Z,470.02
2018-11-29T11:43:59.381Z,475.43
2018-11-29T11:46:28.877Z,444.37
2018-11-29T11:48:59.447Z,437.80
2018-11-29T11:51:28.895Z,443.93
2018-11-29T11:53:58.388Z,441.52
2018-11-29T11:56:27.926Z,441.10
2018-11-29T11:58:57.380Z,451.98
2018-11-29T12:01:26.845Z,456.40
2018-11-29T12:03:56.371Z,451.57
2018-11-29T12:06:25.905Z,466.02
2018-11-29T12:08:55.331Z,465.80
2018-11-29T12:11:24.758Z,471.80
2018-11-29T12:13:54.175Z,471.18
2018-11-29T12:16:23.729Z,479.83
2018-11-29T12:18:53.245Z,478.40
2018-11-29T12:21:23.697Z,482.73
2018-11-29T12:23:53.207Z,474.38
2018-11-29T12:26:22.616Z,463.07
2018-11-29T12:28:52.154Z,466.10
2018-11-29T12:31:22.602Z,453.60
2018-11-29T12:33:52.046Z,453.70
2018-11-29T12:36:23.485Z,447.48
2018-11-29T12:38:54.199Z,452.82
2018-11-29T12:41:25.350Z,457.62
2018-11-29T12:56:58.297Z,456.97
2018-11-29T12:59:27.767Z,452.52
2018-11-29T13:01:57.179Z,467.83
2018-11-29T13:04:26.682Z,476.10
2018-11-29T13:06:56.333Z,481.73
2018-11-29T13:09:25.710Z,496.07
2018-11-29T13:11:55.145Z,491.40
2018-11-29T13:14:25.459Z,487.82
2018-11-29T13:16:55.158Z,491.38
2018-11-29T13:19:25.569Z,489.05
2018-11-29T13:21:55.026Z,487.68
2018-11-29T13:24:24.423Z,487.98
2018-11-29T13:26:53.861Z,490.92
2018-11-29T13:29:23.293Z,488.40
2018-11-29T13:31:52.722Z,482.73
2018-11-29T13:34:22.225Z,489.15
2018-11-29T13:36:51.649Z,478.32
2018-11-29T13:39:22.125Z,474.82
2018-11-29T13:41:51.709Z,470.47
2018-11-29T13:44:21.052Z,459.60
2018-11-29T13:46:50.575Z,448.58
2018-11-29T13:49:20.024Z,456.80
2018-11-29T13:51:50.519Z,461.88
2018-11-29T13:54:19.910Z,452.93
2018-11-29T13:56:49.435Z,445.27
2018-11-29T13:59:18.840Z,441.40
2018-11-29T14:01:49.321Z,445.12
2018-11-29T14:04:19.849Z,433.17
2018-11-29T14:06:49.404Z,424.70
2018-11-29T14:09:18.839Z,427.80
2018-11-29T14:11:48.250Z,423.05
2018-11-29T14:14:17.726Z,430.93
2018-11-29T14:16:47.190Z,428.38
2018-11-29T14:19:16.572Z,425.95
2018-11-29T14:21:51.028Z,420.92
2018-11-29T14:24:15.843Z,417.90
2018-11-29T14:26:47.507Z,420.90
2018-11-29T14:29:16.933Z,413.57
2018-11-29T14:31:46.478Z,421.33
2018-11-29T14:34:16.075Z,429.42
2018-11-29T14:36:46.554Z,429.12
2018-11-29T14:39:16.246Z,419.77
2018-11-29T14:41:45.680Z,421.55
2018-11-29T14:44:15.308Z,422.10
2018-11-29T14:46:44.833Z,425.55
2018-11-29T14:49:14.371Z,425.12
2018-11-29T14:51:48.000Z,423.90
2018-11-29T14:54:13.385Z,436.20
2018-11-29T14:56:42.742Z,424.05
2018-11-29T14:59:12.197Z,418.93
2018-11-29T15:01:41.652Z,427.17
2018-11-29T15:04:11.243Z,425.30
2018-11-29T15:06:40.600Z,430.03
2018-11-29T15:09:10.101Z,426.50
2018-11-29T15:11:39.601Z,417.75
2018-11-29T15:14:09.150Z,424.23
2018-11-29T15:16:38.546Z,428.15
2018-11-29T15:19:08.078Z,424.32
2018-11-29T15:21:37.473Z,420.92
2018-11-29T15:24:07.934Z,422.02
2018-11-29T15:26:37.375Z,421.37
2018-11-29T15:29:06.861Z,416.90
2018-11-29T15:31:36.353Z,412.10
2018-11-29T15:34:06.029Z,413.33
2018-11-29T15:36:35.526Z,409.53
2018-11-29T15:39:06.930Z,415.47
2018-11-29T15:41:36.482Z,405.10
2018-11-29T15:44:05.971Z,420.80
2018-11-29T15:46:35.419Z,408.07
2018-11-29T15:49:05.185Z,411.23
2018-11-29T15:51:34.733Z,408.42
2018-11-29T15:54:04.264Z,406.63
2018-11-29T15:56:33.802Z,407.62
2018-11-29T15:59:03.253Z,408.12
2018-11-29T16:01:33.499Z,408.60
2018-11-29T16:04:02.969Z,414.97
2018-11-29T16:06:32.387Z,416.10
2018-11-29T16:09:01.881Z,415.92
2018-11-29T16:11:32.150Z,413.18
2018-11-29T16:14:01.710Z,405.33
2018-11-29T16:16:31.210Z,415.65
2018-11-29T16:19:03.827Z,407.02
2018-11-29T16:21:30.248Z,405.45
2018-11-29T16:23:59.651Z,404.62
2018-11-29T16:26:29.092Z,401.40
2018-11-29T16:28:58.615Z,407.53
2018-11-29T16:31:28.139Z,410.48
2018-11-29T16:33:57.644Z,420.50
2018-11-29T16:36:28.180Z,416.02
2018-11-29T16:38:59.710Z,409.30
2018-11-29T16:41:29.225Z,410.45
2018-11-29T16:43:58.749Z,413.05
2018-11-29T16:46:28.182Z,411.17
2018-11-29T16:48:57.882Z,427.67
2018-11-29T16:51:27.436Z,409.00
2018-11-29T16:53:57.629Z,409.03
2018-11-29T16:56:27.189Z,415.90
2018-11-29T16:58:56.690Z,413.73
2018-11-29T17:01:26.252Z,408.95
2018-11-29T17:03:55.704Z,413.75
2018-11-29T17:06:25.192Z,403.82
2018-11-29T17:08:55.960Z,414.27
2018-11-29T17:11:25.499Z,411.03
2018-11-29T17:13:54.944Z,410.07
2018-11-29T17:16:24.454Z,409.15
2018-11-29T17:18:55.877Z,404.80
2018-11-29T17:21:25.312Z,414.87
2018-11-29T17:23:54.788Z,409.37
2018-11-29T17:26:25.413Z,420.70
2018-11-29T17:28:55.873Z,418.97
2018-11-29T17:31:25.377Z,432.12
2018-11-29T17:46:58.217Z,410.30
2018-11-29T17:49:27.730Z,405.95
2018-11-29T17:51:57.205Z,406.93
2018-11-29T17:54:26.752Z,404.90
2018-11-29T17:56:56.213Z,418.25
2018-11-29T17:59:26.373Z,408.20
2018-11-29T18:01:55.784Z,416.68
2018-11-29T18:04:25.363Z,410.25
2018-11-29T18:06:55.874Z,405.73
2018-11-29T18:09:25.415Z,402.73
2018-11-29T18:11:54.909Z,409.15
2018-11-29T18:14:24.495Z,406.52
2018-11-29T18:16:53.994Z,398.65
2018-11-29T18:19:24.524Z,408.93
2018-11-29T18:21:55.982Z,393.05
2018-11-29T18:24:25.390Z,396.35
2018-11-29T18:26:54.828Z,402.00
2018-11-29T18:29:24.323Z,400.62
2018-11-29T18:31:53.834Z,385.35
2018-11-29T18:34:23.367Z,383.00
2018-11-29T18:36:52.842Z,384.90
2018-11-29T18:39:22.237Z,385.20
2018-11-29T18:41:51.778Z,377.73
2018-11-29T18:44:23.070Z,368.82
2018-11-29T18:46:52.713Z,377.98
2018-11-29T18:49:22.132Z,360.35
2018-11-29T18:51:51.593Z,362.77
2018-11-29T18:54:21.017Z,368.07
2018-11-29T18:56:51.429Z,359.77
2018-11-29T18:59:20.932Z,379.45
2018-11-29T19:01:50.451Z,360.45
2018-11-29T19:04:19.819Z,354.52
2018-11-29T19:06:50.259Z,357.77
2018-11-29T19:09:19.802Z,355.12
2018-11-29T19:11:49.238Z,355.02
2018-11-29T19:14:18.680Z,351.92
2018-11-29T19:16:48.138Z,358.23
2018-11-29T19:19:17.572Z,353.42
2018-11-29T19:21:47.182Z,356.02
2018-11-29T19:24:16.798Z,349.63
2018-11-29T19:26:46.200Z,351.32
2018-11-29T19:29:15.761Z,350.87
2018-11-29T19:31:46.246Z,344.32
2018-11-29T19:34:15.852Z,356.55
2018-11-29T19:36:45.450Z,352.57
2018-11-29T19:39:14.868Z,349.92
2018-11-29T19:41:44.331Z,343.77
2018-11-29T19:44:13.739Z,338.45
2018-11-29T19:46:43.313Z,340.37
2018-11-29T19:49:13.876Z,342.37
2018-11-29T19:51:43.357Z,340.00
2018-11-29T19:54:12.911Z,350.87
2018-11-29T19:56:43.057Z,356.17
2018-11-29T19:59:13.483Z,352.93
2018-11-29T20:01:42.937Z,364.42
2018-11-29T20:04:12.437Z,353.77
2018-11-29T20:06:42.010Z,348.70
2018-11-29T20:09:11.430Z,361.62
2018-11-29T20:11:41.016Z,357.83
2018-11-29T20:14:11.496Z,368.93
2018-11-29T20:16:40.985Z,374.67
2018-11-29T20:19:10.481Z,361.45
2018-11-29T20:34:43.130Z,364.50
2018-11-29T20:37:12.672Z,372.10
2018-11-29T20:39:42.917Z,370.15
2018-11-29T20:42:12.400Z,375.02
2018-11-29T20:44:41.919Z,374.35
2018-11-29T20:47:11.585Z,373.75
2018-11-29T20:49:41.018Z,369.50
2018-11-29T20:52:10.520Z,381.85
2018-11-29T20:54:41.153Z,382.83
2018-11-29T20:57:10.516Z,378.55
2018-11-29T21:00:54.019Z,375.30
2018-11-29T21:03:23.497Z,379.68
2018-11-29T21:05:53.086Z,384.92
2018-11-29T21:08:22.508Z,381.55
2018-11-29T21:10:51.969Z,377.50
2018-11-29T21:13:21.390Z,368.57
2018-11-29T21:15:50.834Z,364.88
2018-11-29T21:18:20.491Z,372.50
2018-11-29T21:20:52.002Z,368.73
2018-11-29T21:23:21.507Z,383.07
2018-11-29T21:25:50.930Z,372.37
2018-11-29T21:28:20.369Z,372.63
2018-11-29T21:30:49.904Z,386.57
2018-11-29T21:33:19.886Z,391.05
2018-11-29T21:35:49.341Z,382.50
2018-11-29T21:38:20.731Z,389.63
2018-11-29T21:41:05.724Z,380.45
2018-11-29T21:43:35.149Z,386.23
2018-11-29T21:46:04.579Z,383.23
2018-11-29T21:48:34.012Z,388.50
2018-11-29T21:51:03.496Z,377.65
2018-11-29T21:53:32.929Z,392.32
2018-11-29T21:56:02.338Z,395.50
2018-11-29T21:58:31.821Z,387.12
2018-11-29T22:01:02.343Z,398.70
2018-11-29T22:03:31.871Z,395.12
2018-11-29T22:06:01.346Z,400.30
2018-11-29T22:08:30.733Z,388.95
2018-11-29T22:11:00.179Z,402.50
2018-11-29T22:13:29.558Z,394.10
2018-11-29T22:15:59.070Z,392.65
2018-11-29T22:18:28.616Z,402.25
2018-11-29T22:21:00.411Z,394.52
2018-11-29T22:23:30.401Z,398.85
2018-11-29T22:26:03.023Z,394.62
2018-11-29T22:28:32.546Z,407.23
2018-11-29T22:31:01.932Z,419.43
2018-11-29T22:33:31.349Z,415.55
2018-11-29T22:36:01.801Z,419.60
2018-11-29T22:38:32.237Z,416.80
2018-11-29T22:41:01.861Z,415.95
2018-11-29T22:43:31.511Z,412.47
2018-11-29T22:46:01.982Z,414.43
2018-11-29T22:48:33.385Z,410.45
2018-11-29T22:51:02.826Z,412.40
2018-11-29T22:53:32.270Z,406.60
2018-11-29T22:56:01.822Z,402.88
2018-11-29T22:58:32.985Z,396.32
2018-11-29T23:01:02.467Z,399.75
2018-11-29T23:03:31.909Z,402.30
2018-11-29T23:06:02.376Z,402.80
2018-11-29T23:08:31.787Z,396.30
2018-11-29T23:11:01.254Z,400.25
2018-11-29T23:13:30.882Z,402.65
2018-11-29T23:16:00.430Z,396.00
2018-11-29T23:18:29.864Z,407.50
2018-11-29T23:20:59.313Z,400.98
2018-11-29T23:23:28.829Z,400.50
2018-11-29T23:25:58.289Z,398.70
2018-11-29T23:28:27.696Z,406.25
2018-11-29T23:30:58.121Z,391.60
2018-11-29T23:33:27.676Z,407.08
2018-11-29T23:35:58.236Z,403.45
2018-11-29T23:38:27.717Z,397.77
2018-11-29T23:40:57.277Z,403.27
2018-11-29T23:43:26.879Z,402.15
2018-11-29T23:45:56.403Z,404.68
2018-11-29T23:48:25.911Z,397.82
2018-11-29T23:50:55.296Z,402.53
2018-11-29T23:53:24.723Z,399.90
2018-11-29T23:55:54.268Z,395.15
2018-11-29T23:58:23.767Z,410.45
